createdAt,value
2023-05-16T00:01:52.288Z,98805.28
2023-05-16T00:04:21.587Z,98806.94
2023-05-16T00:06:48.220Z,98807.69
2023-05-16T00:09:16.090Z,98801.47
2023-05-16T00:11:42.718Z,98796.44
2023-05-16T00:14:10.764Z,98783.66
2023-05-16T00:16:37.500Z,98791.44
2023-05-16T00:19:05.746Z,98772.91
2023-05-16T00:21:32.447Z,98777.97
2023-05-16T00:23:59.071Z,98774.53
2023-05-16T00:26:26.297Z,98759.41
2023-05-16T00:28:52.946Z,98765.78
2023-05-16T00:31:19.614Z,98743.34
2023-05-16T00:33:46.479Z,98743.03
2023-05-16T00:36:13.156Z,98736.00
2023-05-16T00:38:39.839Z,98719.13
2023-05-16T00:41:06.509Z,98724.56
2023-05-16T00:43:34.208Z,98715.25
2023-05-16T00:46:02.277Z,98707.13
2023-05-16T00:48:30.381Z,98710.97
2023-05-16T00:50:57.850Z,98701.44
2023-05-16T00:53:25.452Z,98692.50
2023-05-16T00:55:52.966Z,98694.56
2023-05-16T00:58:20.632Z,98686.25
2023-05-16T01:00:48.682Z,98691.69
2023-05-16T01:03:16.132Z,98693.75
2023-05-16T01:05:42.883Z,98685.78
2023-05-16T01:08:10.203Z,98677.31
2023-05-16T01:10:44.894Z,98681.47
2023-05-16T01:13:41.495Z,98662.81
2023-05-16T01:16:13.431Z,98665.50
2023-05-16T01:19:06.129Z,98664.81
2023-05-16T01:21:45.308Z,98654.69
2023-05-16T01:24:34.581Z,98659.69
2023-05-16T01:27:06.229Z,98646.13
2023-05-16T01:29:33.413Z,98645.88
2023-05-16T01:32:00.267Z,98632.81
2023-05-16T01:34:26.934Z,98635.84
2023-05-16T01:37:05.658Z,98631.38
2023-05-16T01:39:57.886Z,98635.44
2023-05-16T01:42:30.549Z,98632.78
2023-05-16T01:45:03.760Z,98629.69
2023-05-16T01:47:33.371Z,98610.78
2023-05-16T01:50:18.647Z,98615.88
2023-05-16T01:52:52.210Z,98611.16
2023-05-16T01:55:44.456Z,98601.59
2023-05-16T01:58:12.508Z,98596.59
2023-05-16T02:00:40.625Z,98586.28
2023-05-16T02:03:08.103Z,98591.25
2023-05-16T02:05:35.067Z,98589.66
2023-05-16T02:08:01.857Z,98594.91
2023-05-16T02:10:28.563Z,98583.00
2023-05-16T02:12:56.424Z,98588.22
2023-05-16T02:15:23.225Z,98585.97
2023-05-16T02:17:51.303Z,98581.38
2023-05-16T02:20:19.159Z,98589.63
2023-05-16T02:22:47.532Z,98584.44
2023-05-16T02:25:17.619Z,98575.00
2023-05-16T02:27:44.306Z,98567.97
2023-05-16T02:30:14.348Z,98539.53
2023-05-16T02:32:41.409Z,98533.91
2023-05-16T02:35:08.423Z,98510.53
2023-05-16T02:37:35.512Z,98502.13
2023-05-16T02:40:04.027Z,98505.63
2023-05-16T02:42:32.006Z,98514.69
2023-05-16T02:44:58.688Z,98507.97
2023-05-16T02:47:25.686Z,98519.28
2023-05-16T02:49:52.766Z,98521.81
2023-05-16T02:52:21.187Z,98523.38
2023-05-16T02:55:09.403Z,98522.91
2023-05-16T02:57:35.688Z,98510.16
2023-05-16T03:00:02.409Z,98522.69
2023-05-16T03:02:29.099Z,98513.81
2023-05-16T03:04:55.863Z,98508.66
2023-05-16T03:07:22.470Z,98506.22
2023-05-16T03:09:49.069Z,98494.00
2023-05-16T03:12:17.126Z,98491.25
2023-05-16T03:14:43.776Z,98487.88
2023-05-16T03:17:11.665Z,98484.53
2023-05-16T03:19:38.261Z,98480.88
2023-05-16T03:22:05.115Z,98500.63
2023-05-16T03:24:31.792Z,98496.34
2023-05-16T03:27:00.003Z,98483.91
2023-05-16T03:29:27.204Z,98475.03
2023-05-16T03:31:53.911Z,98466.47
2023-05-16T03:34:20.986Z,98455.09
2023-05-16T03:36:52.553Z,98430.84
2023-05-16T03:39:19.216Z,98428.69
2023-05-16T03:41:45.860Z,98428.94
2023-05-16T03:44:12.551Z,98425.78
2023-05-16T03:46:39.180Z,98427.84
2023-05-16T03:49:06.378Z,98428.28
2023-05-16T03:51:33.386Z,98435.56
2023-05-16T03:54:00.034Z,98433.63
2023-05-16T03:56:27.214Z,98412.78
2023-05-16T03:58:53.817Z,98425.13
2023-05-16T04:01:20.476Z,98415.31
2023-05-16T04:03:47.080Z,98397.47
2023-05-16T04:06:15.140Z,98389.06
2023-05-16T04:08:46.250Z,98388.91
2023-05-16T04:11:12.840Z,98374.03
2023-05-16T04:13:40.943Z,98381.56
2023-05-16T04:16:07.951Z,98366.31
2023-05-16T04:18:34.862Z,98374.44
2023-05-16T04:21:01.789Z,98358.16
2023-05-16T04:23:28.437Z,98350.75
2023-05-16T04:25:56.958Z,98349.00
2023-05-16T04:28:23.614Z,98341.06
2023-05-16T04:30:51.988Z,98337.53
2023-05-16T04:33:20.371Z,98344.69
2023-05-16T04:35:47.084Z,98326.41
2023-05-16T04:38:15.080Z,98325.19
2023-05-16T04:40:44.876Z,98326.34
2023-05-16T04:43:12.585Z,98315.72
2023-05-16T04:45:40.313Z,98319.09
2023-05-16T04:48:08.368Z,98297.38
2023-05-16T04:50:38.418Z,98300.31
2023-05-16T04:53:06.288Z,98307.00
2023-05-16T04:55:32.910Z,98311.41
2023-05-16T04:58:00.882Z,98312.41
2023-05-16T05:00:28.768Z,98304.47
2023-05-16T05:02:55.689Z,98313.44
2023-05-16T05:05:22.433Z,98314.00
2023-05-16T05:07:49.275Z,98308.63
2023-05-16T05:10:16.010Z,98316.06
2023-05-16T05:12:44.004Z,98349.50
2023-05-16T05:15:10.801Z,98350.91
2023-05-16T05:17:38.052Z,98357.94
2023-05-16T05:20:10.466Z,98362.34
2023-05-16T05:22:37.119Z,98388.84
2023-05-16T05:25:04.425Z,98406.72
2023-05-16T05:27:32.609Z,98415.81
2023-05-16T05:29:59.198Z,98436.81
2023-05-16T05:32:27.561Z,98433.56
2023-05-16T05:34:54.222Z,98451.31
2023-05-16T05:37:21.173Z,98471.38
2023-05-16T05:39:47.828Z,98467.88
2023-05-16T05:42:14.420Z,98485.22
2023-05-16T05:44:42.373Z,98480.56
2023-05-16T05:47:09.500Z,98492.88
2023-05-16T05:49:38.330Z,98495.16
2023-05-16T05:52:06.487Z,98483.72
2023-05-16T05:54:33.610Z,98515.91
2023-05-16T05:57:01.508Z,98504.66
2023-05-16T05:59:28.140Z,98533.16
2023-05-16T06:01:54.868Z,98524.59
2023-05-16T06:04:21.848Z,98522.78
2023-05-16T06:06:48.616Z,98529.09
2023-05-16T06:09:16.645Z,98517.16
2023-05-16T06:11:45.872Z,98505.78
2023-05-16T06:14:14.110Z,98499.22
2023-05-16T06:16:42.253Z,98499.38
2023-05-16T06:19:09.116Z,98490.03
2023-05-16T06:21:35.943Z,98486.97
2023-05-16T06:24:03.353Z,98492.50
2023-05-16T06:26:30.037Z,98496.91
2023-05-16T06:28:56.672Z,98503.69
2023-05-16T06:31:24.705Z,98501.84
2023-05-16T06:33:51.346Z,98504.09
2023-05-16T06:36:18.032Z,98504.97
2023-05-16T06:38:44.898Z,98510.94
2023-05-16T06:41:11.540Z,98506.22
2023-05-16T06:43:38.250Z,98497.72
2023-05-16T06:46:06.466Z,98501.22
2023-05-16T06:48:33.233Z,98499.75
2023-05-16T06:51:00.587Z,98497.09
2023-05-16T06:53:27.429Z,98508.63
2023-05-16T06:55:54.187Z,98505.53
2023-05-16T06:58:20.874Z,98503.88
2023-05-16T07:00:50.042Z,98512.28
2023-05-16T07:03:16.891Z,98518.03
2023-05-16T07:05:43.578Z,98516.97
2023-05-16T07:08:12.348Z,98511.06
2023-05-16T07:10:39.741Z,98511.06
2023-05-16T07:13:07.030Z,98511.41
2023-05-16T07:15:33.835Z,98507.31
2023-05-16T07:18:01.031Z,98514.88
2023-05-16T07:20:27.714Z,98499.66
2023-05-16T07:22:55.966Z,98496.97
2023-05-16T07:25:23.727Z,98499.59
2023-05-16T07:27:50.580Z,98492.59
2023-05-16T07:30:18.849Z,98496.03
2023-05-16T07:32:45.595Z,98493.81
2023-05-16T07:35:13.414Z,98492.00
2023-05-16T07:37:42.497Z,98492.09
2023-05-16T07:40:10.835Z,98494.88
2023-05-16T07:42:37.561Z,98496.03
2023-05-16T07:45:05.423Z,98493.59
2023-05-16T07:47:32.154Z,98487.19
2023-05-16T07:49:59.359Z,98481.38
2023-05-16T07:52:26.345Z,98477.34
2023-05-16T07:54:54.201Z,98479.16
2023-05-16T07:57:22.728Z,98469.69
2023-05-16T07:59:53.572Z,98471.13
2023-05-16T08:02:20.372Z,98472.66
2023-05-16T08:04:48.710Z,98476.06
2023-05-16T08:07:15.384Z,98466.91
2023-05-16T08:09:42.201Z,98472.44
2023-05-16T08:12:10.592Z,98477.28
2023-05-16T08:14:38.689Z,98471.25
2023-05-16T08:17:05.435Z,98479.19
2023-05-16T08:19:34.454Z,98473.72
2023-05-16T08:22:01.562Z,98477.44
2023-05-16T08:24:29.524Z,98475.63
2023-05-16T08:26:56.172Z,98466.22
2023-05-16T08:29:22.858Z,98464.66
2023-05-16T08:31:49.673Z,98459.28
2023-05-16T08:34:16.537Z,98462.44
2023-05-16T08:36:43.349Z,98448.38
2023-05-16T08:39:11.725Z,98457.72
2023-05-16T08:41:39.413Z,98453.13
2023-05-16T08:44:06.461Z,98449.53
2023-05-16T08:46:35.840Z,98442.88
2023-05-16T08:49:09.354Z,98441.47
2023-05-16T08:51:40.399Z,98443.50
2023-05-16T08:54:12.065Z,98438.19
2023-05-16T08:56:40.770Z,98436.28
2023-05-16T08:59:08.059Z,98429.78
2023-05-16T09:01:35.153Z,98429.56
2023-05-16T09:04:04.371Z,98423.84
2023-05-16T09:06:31.484Z,98420.00
2023-05-16T09:08:58.274Z,98419.16
2023-05-16T09:11:26.694Z,98418.81
2023-05-16T09:13:53.394Z,98406.41
2023-05-16T09:16:21.324Z,98405.34
2023-05-16T09:18:59.367Z,98399.44
2023-05-16T09:21:29.482Z,98401.78
2023-05-16T09:23:56.259Z,98397.13
2023-05-16T09:26:24.221Z,98399.91
2023-05-16T09:28:56.148Z,98395.63
2023-05-16T09:31:26.782Z,98387.38
2023-05-16T09:33:58.091Z,98390.94
2023-05-16T09:36:26.041Z,98384.28
2023-05-16T09:38:53.450Z,98373.28
2023-05-16T09:41:22.298Z,98371.31
2023-05-16T09:43:49.021Z,98365.41
2023-05-16T09:46:16.864Z,98358.34
2023-05-16T09:48:48.632Z,98360.28
2023-05-16T09:51:17.789Z,98356.72
2023-05-16T09:53:44.492Z,98350.78
2023-05-16T09:56:13.597Z,98346.88
2023-05-16T09:58:42.100Z,98340.09
2023-05-16T10:01:09.966Z,98324.31
2023-05-16T10:03:38.882Z,98329.38
2023-05-16T10:06:06.999Z,98324.19
2023-05-16T10:08:36.742Z,98315.84
2023-05-16T10:11:08.177Z,98317.31
2023-05-16T10:13:36.545Z,98318.91
2023-05-16T10:16:12.545Z,98307.47
2023-05-16T10:18:40.646Z,98307.03
2023-05-16T10:21:15.106Z,98302.34
2023-05-16T10:23:43.265Z,98308.75
2023-05-16T10:26:11.459Z,98301.25
2023-05-16T10:28:39.376Z,98297.41
2023-05-16T10:31:07.644Z,98299.13
2023-05-16T10:33:37.675Z,98293.50
2023-05-16T10:36:05.606Z,98285.19
2023-05-16T10:38:33.750Z,98288.34
2023-05-16T10:41:01.887Z,98288.25
2023-05-16T10:43:31.070Z,98285.00
2023-05-16T10:46:05.934Z,98280.22
2023-05-16T10:48:37.048Z,98278.59
2023-05-16T10:51:26.008Z,98271.44
2023-05-16T10:53:55.266Z,98259.22
2023-05-16T10:56:26.900Z,98262.41
2023-05-16T10:58:56.099Z,98260.38
2023-05-16T11:01:29.449Z,98252.44
2023-05-16T11:03:58.983Z,98261.09
2023-05-16T11:06:33.240Z,98263.81
2023-05-16T11:09:12.084Z,98251.19
2023-05-16T11:11:50.016Z,98261.84
2023-05-16T11:14:47.826Z,98252.84
2023-05-16T11:17:20.725Z,98245.84
2023-05-16T11:19:55.584Z,98255.00
2023-05-16T11:22:23.566Z,98246.25
2023-05-16T11:25:03.018Z,98253.31
2023-05-16T11:27:34.500Z,98241.88
2023-05-16T11:30:07.124Z,98236.38
2023-05-16T11:32:36.940Z,98235.53
2023-05-16T11:35:05.219Z,98226.34
2023-05-16T11:37:33.033Z,98216.47
2023-05-16T11:40:08.202Z,98219.22
2023-05-16T11:42:36.739Z,98217.22
2023-05-16T11:45:14.744Z,98217.66
2023-05-16T11:47:44.620Z,98208.13
2023-05-16T11:50:14.682Z,98208.09
2023-05-16T11:52:54.953Z,98205.72
2023-05-16T11:55:39.334Z,98200.88
2023-05-16T11:58:11.928Z,98196.91
2023-05-16T12:00:48.169Z,98192.97
2023-05-16T12:03:15.349Z,98196.75
2023-05-16T12:05:53.793Z,98195.13
2023-05-16T12:08:27.802Z,98191.22
2023-05-16T12:10:54.837Z,98195.28
2023-05-16T12:13:23.788Z,98198.78
2023-05-16T12:15:52.805Z,98185.81
2023-05-16T12:18:24.183Z,98188.28
2023-05-16T12:20:51.295Z,98181.25
2023-05-16T12:23:19.266Z,98183.66
2023-05-16T12:25:47.177Z,98174.88
2023-05-16T12:28:15.300Z,98174.47
2023-05-16T12:30:45.478Z,98167.81
2023-05-16T12:33:16.353Z,98171.00
2023-05-16T12:35:45.269Z,98171.78
2023-05-16T12:38:14.296Z,98169.47
2023-05-16T12:40:42.704Z,98165.94
2023-05-16T12:43:23.065Z,98163.97
2023-05-16T12:45:56.374Z,98165.94
2023-05-16T12:48:24.515Z,98168.34
2023-05-16T12:50:51.713Z,98165.59
2023-05-16T12:53:21.075Z,98158.41
2023-05-16T12:55:47.732Z,98151.13
2023-05-16T12:58:14.495Z,98146.19
2023-05-16T13:00:42.638Z,98155.06
2023-05-16T13:03:09.389Z,98149.88
2023-05-16T13:05:36.596Z,98146.00
2023-05-16T13:08:03.836Z,98143.34
2023-05-16T13:10:30.731Z,98144.63
2023-05-16T13:12:59.965Z,98147.72
2023-05-16T13:15:28.752Z,98137.13
2023-05-16T13:17:55.920Z,98139.09
2023-05-16T13:20:22.744Z,98133.69
2023-05-16T13:22:49.384Z,98129.78
2023-05-16T13:25:16.294Z,98123.66
2023-05-16T13:27:43.006Z,98137.97
2023-05-16T13:30:11.307Z,98130.59
2023-05-16T13:32:38.229Z,98137.41
2023-05-16T13:35:06.104Z,98138.72
2023-05-16T13:37:32.951Z,98135.94
2023-05-16T13:39:59.730Z,98143.03
2023-05-16T13:42:27.632Z,98131.22
2023-05-16T13:44:57.197Z,98133.28
2023-05-16T13:47:25.210Z,98138.84
2023-05-16T13:49:53.665Z,98141.03
2023-05-16T13:52:22.357Z,98135.56
2023-05-16T13:54:49.011Z,98141.84
2023-05-16T13:57:15.714Z,98135.22
2023-05-16T14:00:04.003Z,98130.53
2023-05-16T14:02:30.266Z,98115.63
2023-05-16T14:04:56.978Z,98108.56
2023-05-16T14:07:23.649Z,98100.72
2023-05-16T14:09:50.418Z,98072.88
2023-05-16T14:12:17.237Z,98043.53
2023-05-16T14:14:44.002Z,98056.84
2023-05-16T14:17:10.697Z,98063.50
2023-05-16T14:19:37.421Z,98052.88
2023-05-16T14:22:05.377Z,98057.59
2023-05-16T14:24:32.168Z,98041.91
2023-05-16T14:27:00.055Z,98028.94
2023-05-16T14:29:26.758Z,98017.56
2023-05-16T14:31:53.863Z,98010.50
2023-05-16T14:34:22.392Z,97985.41
2023-05-16T14:36:49.658Z,97974.44
2023-05-16T14:39:16.571Z,97994.44
2023-05-16T14:41:44.507Z,98010.50
2023-05-16T14:44:12.513Z,98001.06
2023-05-16T14:46:40.687Z,98009.72
2023-05-16T14:49:09.115Z,98008.16
2023-05-16T14:51:37.509Z,98027.81
2023-05-16T14:54:06.960Z,98032.91
2023-05-16T14:56:33.706Z,98049.03
2023-05-16T14:59:01.938Z,98037.25
2023-05-16T15:01:28.618Z,98043.53
2023-05-16T15:03:56.629Z,98042.34
2023-05-16T15:06:24.608Z,98056.09
2023-05-16T15:08:51.523Z,98055.31
2023-05-16T15:11:18.178Z,98058.44
2023-05-16T15:13:45.905Z,98032.88
2023-05-16T15:16:12.628Z,98022.25
2023-05-16T15:18:40.532Z,98036.41
2023-05-16T15:21:07.552Z,98040.69
2023-05-16T15:23:34.251Z,98039.47
2023-05-16T15:26:00.995Z,98024.50
2023-05-16T15:28:29.068Z,98019.25
2023-05-16T15:30:55.723Z,97983.34
2023-05-16T15:33:22.352Z,97983.63
2023-05-16T15:35:50.255Z,97991.44
2023-05-16T15:38:18.099Z,97997.75
2023-05-16T15:40:44.794Z,97964.22
2023-05-16T15:43:12.783Z,97967.28
2023-05-16T15:45:40.567Z,97982.97
2023-05-16T15:48:07.529Z,97979.75
2023-05-16T15:50:34.680Z,97958.75
2023-05-16T15:53:02.000Z,97960.75
2023-05-16T15:55:28.911Z,97965.47
2023-05-16T15:57:59.854Z,97966.97
2023-05-16T16:00:28.022Z,97947.84
2023-05-16T16:02:54.902Z,97946.31
2023-05-16T16:05:21.615Z,97955.81
2023-05-16T16:07:48.315Z,97934.13
2023-05-16T16:10:15.155Z,97920.69
2023-05-16T16:12:42.962Z,97933.72
2023-05-16T16:15:10.921Z,97939.66
2023-05-16T16:17:37.876Z,97923.00
2023-05-16T16:20:05.079Z,97932.66
2023-05-16T16:22:31.770Z,97939.81
2023-05-16T16:24:58.536Z,97938.38
2023-05-16T16:27:25.207Z,97899.63
2023-05-16T16:29:51.840Z,97894.91
2023-05-16T16:32:19.974Z,97912.19
2023-05-16T16:34:46.626Z,97911.88
2023-05-16T16:37:14.899Z,97896.28
2023-05-16T16:39:41.612Z,97881.38
2023-05-16T16:42:09.925Z,97874.53
2023-05-16T16:44:37.007Z,97894.91
2023-05-16T16:47:05.237Z,97872.59
2023-05-16T16:49:31.960Z,97869.59
2023-05-16T16:51:59.077Z,97868.63
2023-05-16T16:54:25.768Z,97855.00
2023-05-16T16:56:52.615Z,97837.34
2023-05-16T16:59:20.577Z,97835.19
2023-05-16T17:01:47.281Z,97849.34
2023-05-16T17:04:14.057Z,97812.25
2023-05-16T17:06:41.072Z,97799.13
2023-05-16T17:09:13.644Z,97805.97
2023-05-16T17:11:42.284Z,97809.78
2023-05-16T17:14:11.853Z,97797.06
2023-05-16T17:16:38.624Z,97800.41
2023-05-16T17:19:05.581Z,97804.06
2023-05-16T17:21:34.625Z,97790.03
2023-05-16T17:24:01.568Z,97750.63
2023-05-16T17:26:29.270Z,97757.09
2023-05-16T17:29:03.874Z,97765.31
2023-05-16T17:31:32.240Z,97737.25
2023-05-16T17:34:00.206Z,97729.63
2023-05-16T17:36:26.843Z,97729.03
2023-05-16T17:38:53.549Z,97729.63
2023-05-16T17:41:20.596Z,97693.94
2023-05-16T17:43:47.326Z,97698.88
2023-05-16T17:46:14.545Z,97699.41
2023-05-16T17:48:41.242Z,97692.00
2023-05-16T17:51:09.306Z,97654.59
2023-05-16T17:53:37.637Z,97656.34
2023-05-16T17:56:04.685Z,97665.75
2023-05-16T17:58:31.345Z,97638.19
2023-05-16T18:00:58.113Z,97631.25
2023-05-16T18:03:24.897Z,97620.03
2023-05-16T18:05:52.980Z,97603.25
2023-05-16T18:08:19.752Z,97553.19
2023-05-16T18:10:51.655Z,97582.13
2023-05-16T18:13:21.064Z,97569.84
2023-05-16T18:15:47.782Z,97572.78
2023-05-16T18:18:15.806Z,97543.06
2023-05-16T18:20:42.918Z,97530.75
2023-05-16T18:23:09.670Z,97538.66
2023-05-16T18:25:36.322Z,97548.53
2023-05-16T18:28:03.716Z,97509.63
2023-05-16T18:30:30.473Z,97506.63
2023-05-16T18:32:58.454Z,97511.31
2023-05-16T18:35:29.047Z,97495.50
2023-05-16T18:37:56.076Z,97476.50
2023-05-16T18:40:23.187Z,97478.56
2023-05-16T18:42:50.248Z,97478.38
2023-05-16T18:45:17.000Z,97437.38
2023-05-16T18:47:44.179Z,97417.63
2023-05-16T18:50:12.408Z,97422.34
2023-05-16T18:55:08.237Z,97408.56
2023-05-16T18:57:35.146Z,97403.63
2023-05-16T19:00:01.823Z,97413.66
2023-05-16T19:02:41.072Z,97410.41
2023-05-16T19:05:09.795Z,97427.69
2023-05-16T19:07:37.930Z,97443.31
2023-05-16T19:10:04.940Z,97441.47
2023-05-16T19:12:31.852Z,97427.94
2023-05-16T19:14:59.881Z,97417.53
2023-05-16T19:17:26.828Z,97420.47
2023-05-16T19:19:54.995Z,97411.50
2023-05-16T19:22:21.746Z,97400.72
2023-05-16T19:24:48.465Z,97404.91
2023-05-16T19:27:15.137Z,97379.91
2023-05-16T19:29:41.828Z,97372.25
2023-05-16T19:32:08.685Z,97377.69
2023-05-16T19:34:35.515Z,97341.66
2023-05-16T19:37:03.468Z,97336.31
2023-05-16T19:39:32.152Z,97335.66
2023-05-16T19:42:06.721Z,97338.13
2023-05-16T19:44:35.619Z,97307.38
2023-05-16T19:47:04.436Z,97305.16
2023-05-16T19:49:31.759Z,97309.56
2023-05-16T19:51:59.130Z,97295.56
2023-05-16T19:54:26.346Z,97287.91
2023-05-16T19:56:53.133Z,97301.53
2023-05-16T19:59:20.584Z,97258.59
2023-05-16T20:01:47.313Z,97242.72
2023-05-16T20:04:14.134Z,97240.44
2023-05-16T20:06:41.243Z,97233.69
2023-05-16T20:09:08.041Z,97222.44
2023-05-16T20:11:36.814Z,97205.41
2023-05-16T20:14:03.499Z,97206.09
2023-05-16T20:16:30.344Z,97192.09
2023-05-16T20:18:57.170Z,97192.19
2023-05-16T20:21:24.222Z,97195.63
2023-05-16T20:23:52.187Z,97174.50
2023-05-16T20:26:19.257Z,97157.44
2023-05-16T20:28:46.101Z,97162.53
2023-05-16T20:31:13.061Z,97145.28
2023-05-16T20:33:39.939Z,97123.53
2023-05-16T20:36:08.398Z,97118.13
2023-05-16T20:38:35.139Z,97095.38
2023-05-16T20:41:04.587Z,97076.81
2023-05-16T20:43:31.245Z,97086.94
2023-05-16T20:45:59.969Z,97101.16
2023-05-16T20:48:26.737Z,97084.47
2023-05-16T20:50:55.825Z,97069.00
2023-05-16T20:53:22.985Z,97080.53
2023-05-16T20:55:49.641Z,97028.81
2023-05-16T20:58:16.336Z,97028.91
2023-05-16T21:00:43.057Z,97023.69
2023-05-16T21:03:12.443Z,96998.44
2023-05-16T21:05:40.818Z,97000.47
2023-05-16T21:08:07.847Z,97012.03
2023-05-16T21:10:34.544Z,96992.59
2023-05-16T21:13:01.180Z,96988.00
2023-05-16T21:15:28.224Z,96996.50
2023-05-16T21:17:56.481Z,96988.34
2023-05-16T21:20:23.238Z,96975.59
2023-05-16T21:22:49.866Z,96993.41
2023-05-16T21:25:16.912Z,96941.59
2023-05-16T21:27:43.608Z,96931.16
2023-05-16T21:30:10.739Z,96942.03
2023-05-16T21:32:37.483Z,96934.19
2023-05-16T21:35:06.169Z,96919.84
2023-05-16T21:37:33.130Z,96931.13
2023-05-16T21:40:01.224Z,96928.75
2023-05-16T21:42:27.926Z,96929.56
2023-05-16T21:44:54.616Z,96924.16
2023-05-16T21:47:21.388Z,96937.31
2023-05-16T21:49:48.124Z,96919.81
2023-05-16T21:52:15.364Z,96922.59
2023-05-16T21:54:42.028Z,96921.00
2023-05-16T21:57:08.727Z,96913.59
2023-05-16T21:59:35.414Z,96899.25
2023-05-16T22:02:02.133Z,96903.91
2023-05-16T22:04:28.870Z,96903.06
2023-05-16T22:06:55.475Z,96882.84
2023-05-16T22:09:22.273Z,96884.84
2023-05-16T22:11:49.094Z,96893.38
2023-05-16T22:14:15.807Z,96882.84
2023-05-16T22:16:43.601Z,96869.63
2023-05-16T22:19:10.585Z,96866.50
2023-05-16T22:21:37.265Z,96861.81
2023-05-16T22:24:04.034Z,96840.03
2023-05-16T22:26:30.720Z,96828.00
2023-05-16T22:28:57.478Z,96829.13
2023-05-16T22:31:24.076Z,96808.50
2023-05-16T22:33:50.751Z,96794.13
2023-05-16T22:36:17.699Z,96808.91
2023-05-16T22:38:45.477Z,96794.09
2023-05-16T22:41:13.094Z,96779.31
2023-05-16T22:43:39.760Z,96783.22
2023-05-16T22:46:07.586Z,96763.75
2023-05-16T22:48:35.293Z,96756.75
2023-05-16T22:51:03.419Z,96762.19
2023-05-16T22:53:30.106Z,96754.81
2023-05-16T22:55:56.831Z,96731.06
2023-05-16T22:58:23.579Z,96731.06
2023-05-16T23:00:50.293Z,96735.75
2023-05-16T23:03:18.127Z,96721.72
2023-05-16T23:05:44.818Z,96714.31
2023-05-16T23:08:11.510Z,96718.22
2023-05-16T23:10:38.296Z,96714.72
2023-05-16T23:13:04.961Z,96709.66
2023-05-16T23:15:31.729Z,96718.22
2023-05-16T23:17:58.606Z,96725.22
2023-05-16T23:20:25.934Z,96710.81
2023-05-16T23:22:52.618Z,96719.00
2023-05-16T23:25:19.313Z,96723.28
2023-05-16T23:27:46.916Z,96710.44
2023-05-16T23:30:13.921Z,96711.63
2023-05-16T23:32:40.642Z,96725.22
2023-05-16T23:35:07.650Z,96736.44
2023-05-16T23:37:34.358Z,96760.38
2023-05-16T23:40:00.968Z,96787.97
2023-05-16T23:42:27.763Z,96812.66
2023-05-16T23:44:54.385Z,96833.94
2023-05-16T23:47:21.338Z,96820.59
2023-05-16T23:49:48.013Z,96819.09
2023-05-16T23:52:16.837Z,96839.66
2023-05-16T23:54:45.461Z,96825.59
2023-05-16T23:57:12.128Z,96832.06
2023-05-16T23:59:39.784Z,96840.19
